Time;durP1;ratioP1;P1;durP2;ratioP2;P2;SDS_P1;SDS_P2;PMS_P1;PMS_P2;Temp;Humidity;BMP_temperature;BMP_pressure;BME280_temperature;BME280_humidity;BME280_pressure;Samples;Min_cycle;Max_cycle;Signal;HPM_P1;HPM_P2
2021/07/13 04:18:59;;;;;;;8.15;4.10;;;18.30;95.40;;;;;;6166488;23;20213;-91
2021/07/13 04:21:26;;;;;;;5.13;3.75;;;18.40;95.60;;;;;;6157027;23;20242;-91
2021/07/13 04:46:48;;;;;;;4.10;3.70;;;19.10;92.80;;;;;;6058007;23;20228;-89
2021/07/13 05:00:09;;;;;;;5.53;3.80;;;19.50;91.90;;;;;;6007375;23;20170;-95
2021/07/13 05:15:58;;;;;;;4.97;3.53;;;19.80;91.40;;;;;;5990974;24;20199;-93
2021/07/13 05:18:25;;;;;;;9.85;4.03;;;19.80;91.60;;;;;;5985373;23;20234;-90
2021/07/13 05:20:57;;;;;;;9.43;3.85;;;19.80;91.20;;;;;;6148134;23;20206;-93
2021/07/13 05:23:24;;;;;;;4.28;3.30;;;19.80;91.40;;;;;;6159573;23;20207;-93
2021/07/13 05:25:53;;;;;;;5.65;3.67;;;19.80;91.50;;;;;;6164502;23;20215;-92
2021/07/13 05:31:12;;;;;;;7.00;3.55;;;20.00;90.50;;;;;;6111834;23;20179;-95
2021/07/13 05:33:41;;;;;;;5.82;3.50;;;20.10;90.40;;;;;;6167717;23;20222;-93
2021/07/13 05:39:50;;;;;;;5.78;3.55;;;20.30;90.20;;;;;;6130013;23;20269;-91
2021/07/13 05:42:18;;;;;;;5.00;3.80;;;20.30;89.70;;;;;;6137834;23;20203;-91
2021/07/13 05:47:29;;;;;;;6.72;3.90;;;20.40;88.60;;;;;;6162195;23;20203;-92
2021/07/13 05:50:16;;;;;;;8.43;4.00;;;20.30;87.90;;;;;;6122465;23;20495;-92
2021/07/13 05:52:43;;;;;;;4.78;3.80;;;20.50;87.90;;;;;;6165483;23;20199;-92
2021/07/13 05:55:13;;;;;;;4.93;3.67;;;20.60;87.70;;;;;;6162098;23;20175;-92
2021/07/13 05:57:41;;;;;;;5.45;3.60;;;20.70;86.70;;;;;;6158167;23;20215;-91
2021/07/13 06:08:45;;;;;;;6.50;3.90;;;20.70;85.80;;;;;;6120811;23;20168;-91
2021/07/13 06:11:14;;;;;;;6.75;3.47;;;20.60;85.40;;;;;;6160836;23;20704;-90
2021/07/13 06:13:41;;;;;;;4.88;3.58;;;20.60;87.10;;;;;;6166428;23;20186;-93
2021/07/13 06:21:58;;;;;;;4.93;3.80;;;20.40;86.40;;;;;;6152724;23;20230;-92
2021/07/13 06:24:28;;;;;;;4.15;3.80;;;20.60;86.80;;;;;;6128018;23;20589;-92
2021/07/13 06:27:16;;;;;;;5.35;3.95;;;20.70;84.90;;;;;;6143169;23;20175;-93
2021/07/13 06:30:12;;;;;;;5.90;3.47;;;20.80;84.70;;;;;;6152839;23;20203;-92
2021/07/13 06:32:59;;;;;;;7.28;3.97;;;21.00;85.40;;;;;;6145092;23;20281;-93
2021/07/13 06:35:26;;;;;;;4.85;3.63;;;21.20;83.20;;;;;;6131165;23;20258;-93
2021/07/13 06:37:53;;;;;;;4.53;3.55;;;21.20;81.70;;;;;;6129746;23;20273;-92
2021/07/13 06:40:20;;;;;;;6.03;3.95;;;21.20;81.70;;;;;;6103500;23;20183;-92
2021/07/13 06:42:47;;;;;;;5.07;3.63;;;21.30;81.70;;;;;;6105169;23;20899;-92
2021/07/13 06:45:14;;;;;;;8.90;4.18;;;21.30;81.70;;;;;;6129117;23;20595;-93
2021/07/13 06:47:41;;;;;;;6.88;3.75;;;21.30;81.70;;;;;;6153662;23;20215;-92
2021/07/13 06:52:52;;;;;;;4.85;3.95;;;21.40;81.80;;;;;;6151752;23;20206;-92
2021/07/13 06:55:20;;;;;;;5.40;3.88;;;21.30;81.80;;;;;;6129281;23;20245;-90
2021/07/13 06:57:49;;;;;;;6.13;4.30;;;21.40;81.80;;;;;;6128150;23;20608;-92
2021/07/13 07:02:58;;;;;;;5.00;4.05;;;21.50;80.70;;;;;;6137642;23;20655;-93
2021/07/13 07:08:08;;;;;;;4.35;3.95;;;21.30;81.70;;;;;;6143345;23;20207;-90
2021/07/13 07:10:35;;;;;;;5.85;4.00;;;21.20;81.70;;;;;;6083845;23;20195;-92
2021/07/13 07:13:02;;;;;;;5.97;4.03;;;21.40;81.80;;;;;;6154518;23;20207;-92
2021/07/13 07:15:29;;;;;;;5.05;3.53;;;21.30;81.70;;;;;;6129085;23;20623;-92
2021/07/13 07:17:56;;;;;;;6.10;3.92;;;21.30;81.70;;;;;;6154609;23;20239;-92
2021/07/13 07:23:30;;;;;;;4.95;4.32;;;21.70;82.00;;;;;;6152025;23;20211;-92
2021/07/13 07:25:57;;;;;;;8.10;4.25;;;21.80;78.70;;;;;;6129787;23;20211;-90
2021/07/13 07:31:05;;;;;;;6.15;4.45;;;22.30;77.70;;;;;;6131014;23;20198;-92
2021/07/13 07:33:33;;;;;;;5.90;4.80;;;22.30;76.40;;;;;;6127118;23;20214;-92
2021/07/13 07:38:47;;;;;;;5.07;4.50;;;22.40;76.10;;;;;;6152523;23;20199;-92
2021/07/13 07:41:14;;;;;;;6.13;4.28;;;22.60;74.90;;;;;;6128858;23;20214;-91
2021/07/13 07:43:41;;;;;;;4.47;4.07;;;22.60;74.60;;;;;;6154474;23;20278;-91
2021/07/13 07:46:09;;;;;;;10.32;4.55;;;23.00;72.40;;;;;;6153667;23;20218;-91
2021/07/13 07:48:37;;;;;;;10.82;4.57;;;22.90;70.80;;;;;;6152963;23;20207;-90
2021/07/13 07:51:21;;;;;;;8.50;4.63;;;23.00;69.50;;;;;;6131491;23;20202;-91
2021/07/13 07:53:48;;;;;;;8.88;4.30;;;23.10;69.60;;;;;;6127719;23;20207;-91
2021/07/13 07:56:15;;;;;;;4.90;4.40;;;23.20;68.30;;;;;;6153574;23;20207;-91
2021/07/13 07:58:43;;;;;;;7.13;4.90;;;23.40;66.90;;;;;;6152057;23;20932;-91
2021/07/13 08:01:10;;;;;;;5.07;4.57;;;23.80;63.60;;;;;;6127227;23;20519;-91
2021/07/13 08:03:38;;;;;;;4.97;4.57;;;24.00;59.50;;;;;;6152439;23;20209;-91
2021/07/13 08:06:05;;;;;;;5.22;4.82;;;24.30;59.80;;;;;;6153720;23;20274;-91
2021/07/13 08:08:33;;;;;;;5.28;4.78;;;24.20;59.70;;;;;;6152331;23;20282;-91
2021/07/13 08:11:01;;;;;;;5.10;4.50;;;24.10;59.60;;;;;;6153081;23;20282;-91
2021/07/13 08:13:34;;;;;;;5.75;5.00;;;24.10;60.10;;;;;;6152692;23;20557;-91
2021/07/13 08:16:07;;;;;;;11.02;4.63;;;23.70;60.40;;;;;;6127674;23;20197;-91
2021/07/13 08:18:34;;;;;;;6.57;4.95;;;23.80;62.30;;;;;;6125935;23;20726;-90
2021/07/13 08:21:01;;;;;;;5.68;4.70;;;23.80;64.30;;;;;;6127206;23;20180;-91
2021/07/13 08:23:29;;;;;;;5.95;4.60;;;24.20;59.80;;;;;;6153094;23;20742;-90
2021/07/13 08:25:58;;;;;;;8.95;4.82;;;24.30;59.80;;;;;;6154949;23;20254;-88
2021/07/13 08:28:25;;;;;;;5.47;4.63;;;24.30;59.90;;;;;;6153771;23;20540;-88
2021/07/13 08:30:52;;;;;;;6.50;4.97;;;24.10;59.60;;;;;;6128377;23;20225;-88
2021/07/13 08:33:19;;;;;;;5.40;4.95;;;23.90;59.40;;;;;;6154917;23;20318;-89
2021/07/13 08:35:46;;;;;;;7.30;5.15;;;24.10;59.70;;;;;;6128545;23;20185;-88
2021/07/13 08:38:14;;;;;;;6.03;5.43;;;24.10;59.60;;;;;;6153481;23;20229;-87
2021/07/13 08:40:41;;;;;;;5.95;5.28;;;24.70;56.00;;;;;;6153231;23;20548;-88
2021/07/13 08:43:10;;;;;;;6.70;6.00;;;24.90;54.20;;;;;;6152294;23;20222;-89
2021/07/13 08:45:39;;;;;;;5.63;5.22;;;24.80;53.20;;;;;;6154955;23;20266;-88
2021/07/13 08:48:06;;;;;;;8.13;6.07;;;24.80;52.40;;;;;;6153447;23;20278;-88
2021/07/13 08:50:34;;;;;;;8.85;5.80;;;24.70;54.50;;;;;;6127742;23;20278;-88
2021/07/13 08:53:01;;;;;;;7.47;5.22;;;24.30;55.40;;;;;;6153655;23;20234;-88
2021/07/13 08:55:28;;;;;;;7.25;6.43;;;24.10;56.90;;;;;;6155138;23;20723;-88
2021/07/13 08:57:56;;;;;;;7.68;6.68;;;24.00;56.90;;;;;;6155225;23;20242;-88
2021/07/13 09:00:24;;;;;;;6.57;5.90;;;24.50;55.90;;;;;;6153582;23;20227;-88
2021/07/13 09:03:11;;;;;;;10.13;5.65;;;24.70;54.50;;;;;;6155148;23;20209;-89
2021/07/13 09:05:49;;;;;;;7.45;5.25;;;25.00;52.80;;;;;;6154418;23;20214;-88
2021/07/13 09:08:22;;;;;;;10.00;5.63;;;25.00;51.00;;;;;;6127507;23;20548;-89
2021/07/13 09:11:12;;;;;;;6.95;6.25;;;24.90;52.50;;;;;;6157809;23;20192;-89
2021/07/13 09:13:42;;;;;;;6.65;6.05;;;24.60;53.00;;;;;;6150043;23;20581;-88
2021/07/13 09:21:57;;;;;;;7.22;6.00;;;24.10;57.40;;;;;;6151958;23;20210;-90
2021/07/13 09:24:32;;;;;;;6.55;5.80;;;24.00;57.30;;;;;;6129133;23;20203;-90
2021/07/13 09:27:04;;;;;;;6.22;5.63;;;24.20;57.60;;;;;;6155370;23;20254;-90
2021/07/13 09:29:37;;;;;;;6.82;6.20;;;24.60;52.90;;;;;;6153457;23;20175;-87
2021/07/13 09:35:11;;;;;;;6.25;5.65;;;24.80;53.50;;;;;;6154748;23;20190;-88
2021/07/13 09:37:39;;;;;;;6.10;5.28;;;25.10;53.80;;;;;;6155198;23;20203;-88
2021/07/13 09:40:10;;;;;;;6.78;5.45;;;26.50;46.50;;;;;;6132188;23;20190;-90
2021/07/13 09:42:43;;;;;;;6.57;5.88;;;27.20;40.80;;;;;;6154916;23;20218;-90
2021/07/13 09:45:18;;;;;;;8.73;6.13;;;26.80;41.50;;;;;;6152680;23;20609;-91
2021/07/13 09:47:48;;;;;;;7.07;6.38;;;26.70;43.10;;;;;;6126881;23;20286;-91
2021/07/13 09:50:31;;;;;;;7.15;6.32;;;26.40;44.50;;;;;;6152638;23;20195;-90
2021/07/13 09:52:59;;;;;;;9.35;6.65;;;26.20;44.70;;;;;;6152413;23;20709;-91
2021/07/13 09:55:27;;;;;;;7.50;6.72;;;25.70;46.10;;;;;;6154458;23;20168;-88
2021/07/13 09:57:54;;;;;;;8.07;7.43;;;25.40;49.70;;;;;;6154189;23;20214;-88
2021/07/13 10:00:22;;;;;;;7.63;6.82;;;24.90;51.20;;;;;;6128382;23;20809;-87
2021/07/13 10:02:51;;;;;;;10.13;7.90;;;24.60;53.00;;;;;;6156601;23;20264;-87
2021/07/13 10:05:21;;;;;;;8.65;7.75;;;24.40;53.00;;;;;;6155798;23;20254;-89
2021/07/13 10:07:49;;;;;;;6.45;5.82;;;24.00;56.60;;;;;;6154900;23;20259;-90
2021/07/13 10:10:16;;;;;;;20.67;4.13;;;23.70;59.30;;;;;;6129493;23;20246;-90
2021/07/13 10:12:45;;;;;;;3.33;2.60;;;23.20;58.80;;;;;;6155716;23;20277;-91
2021/07/13 10:15:13;;;;;;;2.28;1.90;;;22.80;60.20;;;;;;6151657;23;20217;-92
2021/07/13 10:17:41;;;;;;;4.38;2.05;;;22.30;63.60;;;;;;6157584;23;20656;-92
2021/07/13 10:20:14;;;;;;;8.68;1.40;;;21.70;64.30;;;;;;6158358;23;20186;-92
2021/07/13 10:34:47;;;;;;;1.85;1.10;;;20.50;74.90;;;;;;6103793;23;20178;-92
2021/07/13 10:49:20;;;;;;;1.15;1.05;;;20.80;66.60;;;;;;6143022;23;20217;-91
2021/07/13 10:51:48;;;;;;;1.10;0.98;;;20.90;64.90;;;;;;6164891;23;20187;-91
2021/07/13 10:57:25;;;;;;;2.03;1.15;;;20.70;65.40;;;;;;6156936;23;20167;-91
2021/07/13 10:59:52;;;;;;;3.95;1.30;;;20.80;65.50;;;;;;6114351;23;20175;-91
2021/07/13 11:02:21;;;;;;;1.30;1.20;;;20.80;63.00;;;;;;6155166;23;20214;-91
2021/07/13 11:04:48;;;;;;;3.13;1.02;;;20.50;65.20;;;;;;6155021;23;20175;-90
2021/07/13 11:07:41;;;;;;;2.35;0.85;;;20.10;64.00;;;;;;6153383;23;20202;-90
2021/07/13 11:13:00;;;;;;;1.27;0.80;;;19.50;68.00;;;;;;6129210;23;20203;-92
2021/07/13 11:15:28;;;;;;;2.60;1.08;;;19.50;66.90;;;;;;6126937;23;20608;-92
2021/07/13 11:17:57;;;;;;;1.08;0.98;;;19.30;67.40;;;;;;6153751;23;20740;-92
2021/07/13 11:20:26;;;;;;;1.90;0.80;;;19.20;67.40;;;;;;6103773;23;20479;-92
2021/07/13 11:22:54;;;;;;;5.05;0.95;;;19.20;67.20;;;;;;6152998;23;20276;-92
2021/07/13 11:25:34;;;;;;;3.17;0.95;;;19.30;67.50;;;;;;6153380;23;20238;-92
2021/07/13 11:28:19;;;;;;;2.50;0.98;;;19.30;65.50;;;;;;6153205;23;20203;-93
2021/07/13 11:30:52;;;;;;;1.27;0.93;;;19.10;65.20;;;;;;6127238;23;20266;-91
2021/07/13 11:33:27;;;;;;;2.88;0.93;;;19.10;66.10;;;;;;6127909;23;20260;-92
2021/07/13 11:35:56;;;;;;;2.20;0.70;;;19.10;65.60;;;;;;6127925;23;20214;-92
2021/07/13 11:38:29;;;;;;;3.72;0.88;;;19.00;66.10;;;;;;6153476;23;20299;-92
2021/07/13 11:41:10;;;;;;;3.92;0.90;;;18.90;65.00;;;;;;6155742;23;20172;-92
2021/07/13 11:43:38;;;;;;;2.80;0.80;;;18.60;67.50;;;;;;6142916;23;20202;-92
2021/07/13 11:46:12;;;;;;;0.73;0.73;;;18.70;68.70;;;;;;6153946;23;20266;-92
2021/07/13 11:48:40;;;;;;;2.75;1.00;;;18.90;68.90;;;;;;6125867;23;20206;-92
2021/07/13 11:51:08;;;;;;;3.97;0.90;;;19.10;64.10;;;;;;6127724;23;20196;-92
2021/07/13 11:53:36;;;;;;;1.10;0.77;;;19.20;62.20;;;;;;6153469;23;20203;-91
2021/07/13 11:56:04;;;;;;;1.23;1.00;;;19.00;64.10;;;;;;6153476;23;20257;-92
2021/07/13 11:58:33;;;;;;;0.93;0.88;;;19.00;63.80;;;;;;6151518;23;20686;-91
2021/07/13 12:01:22;;;;;;;1.00;0.82;;;18.90;64.10;;;;;;6153437;23;20263;-92
2021/07/13 12:03:49;;;;;;;2.35;0.98;;;18.80;65.60;;;;;;6145015;23;20573;-92
2021/07/13 12:06:19;;;;;;;1.10;0.85;;;18.70;62.70;;;;;;6128425;23;20285;-92
2021/07/13 12:08:54;;;;;;;0.65;0.65;;;18.60;64.30;;;;;;6152918;23;20222;-92
2021/07/13 12:11:43;;;;;;;1.70;0.70;;;18.60;64.00;;;;;;6129497;23;20699;-92
2021/07/13 12:16:57;;;;;;;2.25;1.10;;;18.80;62.10;;;;;;6127941;23;20221;-92
2021/07/13 12:19:27;;;;;;;2.00;0.80;;;18.90;62.30;;;;;;6117262;23;20194;-92
2021/07/13 12:22:04;;;;;;;1.98;0.98;;;18.90;64.70;;;;;;6152488;23;20179;-92
2021/07/13 12:24:43;;;;;;;2.95;0.93;;;18.80;66.90;;;;;;6091918;23;20202;-92
2021/07/13 12:27:33;;;;;;;1.00;0.70;;;18.70;65.80;;;;;;6150276;23;20712;-92
2021/07/13 12:30:08;;;;;;;0.70;0.63;;;18.60;65.00;;;;;;6152566;23;20479;-92
2021/07/13 12:32:35;;;;;;;4.68;0.82;;;18.30;66.60;;;;;;6154585;23;20674;-92
2021/07/13 12:35:07;;;;;;;0.52;0.50;;;18.30;66.40;;;;;;6155434;23;20175;-92
2021/07/13 12:37:35;;;;;;;3.75;0.70;;;18.30;67.50;;;;;;6149524;23;20199;-92
2021/07/13 12:42:51;;;;;;;0.88;0.68;;;18.10;67.90;;;;;;6131474;23;20199;-92
2021/07/13 12:48:04;;;;;;;0.70;0.70;;;18.20;69.70;;;;;;6130108;23;20211;-92
2021/07/13 12:50:52;;;;;;;0.60;0.60;;;18.10;69.80;;;;;;6074838;23;20199;-92
2021/07/13 12:53:27;;;;;;;2.50;0.85;;;18.20;69.50;;;;;;6127448;23;20203;-93
2021/07/13 12:56:02;;;;;;;0.77;0.70;;;18.10;68.70;;;;;;6155147;23;20257;-92
2021/07/13 12:58:29;;;;;;;2.10;1.00;;;18.10;68.00;;;;;;6154052;23;20567;-92
2021/07/13 13:03:43;;;;;;;0.70;0.70;;;17.90;70.80;;;;;;6120928;23;20203;-92
2021/07/13 13:06:11;;;;;;;2.38;1.25;;;17.90;71.10;;;;;;6150211;23;20183;-92
2021/07/13 13:11:24;;;;;;;0.70;0.70;;;17.60;72.30;;;;;;6147666;23;20538;-93
2021/07/13 13:14:18;;;;;;;0.80;0.80;;;17.40;72.20;;;;;;6121372;23;20254;-93
2021/07/13 13:26:05;;;;;;;0.63;0.63;;;17.30;78.90;;;;;;6116538;23;20167;-93
2021/07/13 13:28:34;;;;;;;0.95;0.70;;;17.40;79.00;;;;;;6136980;23;20234;-94
2021/07/13 13:31:04;;;;;;;0.90;0.90;;;17.40;79.80;;;;;;6159644;23;20245;-92
2021/07/13 13:33:32;;;;;;;1.60;0.95;;;17.20;81.40;;;;;;6130772;23;20207;-88
2021/07/13 13:36:12;;;;;;;2.40;0.80;;;17.20;81.10;;;;;;6131321;23;20207;-89
2021/07/13 13:46:51;;;;;;;6.15;1.40;;;16.70;88.10;;;;;;6134330;23;20218;-94
2021/07/13 13:49:40;;;;;;;3.08;1.70;;;16.50;90.90;;;;;;6119090;23;20182;-94
2021/07/13 13:54:50;;;;;;;2.75;1.50;;;16.10;96.10;;;;;;6094501;23;20184;-93
2021/07/13 13:57:38;;;;;;;1.83;1.42;;;16.00;96.00;;;;;;6074190;23;20528;-92
2021/07/13 14:05:30;;;;;;;2.60;1.33;;;15.90;97.10;;;;;;6101760;23;20179;-93
2021/07/13 14:10:43;;;;;;;1.98;1.10;;;15.60;98.20;;;;;;6127767;23;20302;-92
2021/07/13 14:13:10;;;;;;;1.90;1.15;;;15.50;98.50;;;;;;6154016;23;20235;-91
2021/07/13 14:15:39;;;;;;;1.20;1.10;;;15.50;98.70;;;;;;6158026;23;20247;-92
2021/07/13 14:20:48;;;;;;;1.17;1.08;;;15.40;98.10;;;;;;6105268;23;20499;-92
2021/07/13 14:27:06;;;;;;;3.90;1.00;;;15.30;98.70;;;;;;6071138;23;20252;-93
2021/07/13 14:29:43;;;;;;;2.30;0.80;;;15.50;98.50;;;;;;6044089;23;20341;-93
2021/07/13 14:32:22;;;;;;;1.20;1.10;;;15.60;97.80;;;;;;6064585;23;20552;-93
2021/07/13 14:34:49;;;;;;;3.83;1.13;;;15.60;97.60;;;;;;6075666;23;20165;-93
2021/07/13 14:39:59;;;;;;;1.27;1.02;;;15.40;98.00;;;;;;6153392;23;20214;-93
2021/07/13 14:47:49;;;;;;;1.65;1.40;;;15.30;98.70;;;;;;6145939;23;20230;-92
2021/07/13 14:50:16;;;;;;;3.15;1.30;;;15.30;99.10;;;;;;6154500;23;20562;-94
2021/07/13 14:52:43;;;;;;;3.05;1.30;;;15.30;98.60;;;;;;6148904;23;20199;-92
2021/07/13 14:55:12;;;;;;;6.45;1.60;;;15.40;98.30;;;;;;6153363;23;20500;-92
2021/07/13 15:00:39;;;;;;;1.60;1.25;;;15.50;98.20;;;;;;6039372;23;20174;-92
2021/07/13 15:03:22;;;;;;;2.28;1.17;;;15.60;98.10;;;;;;6110795;23;20227;-93
2021/07/13 15:06:46;;;;;;;1.92;1.33;;;15.60;98.30;;;;;;6159875;23;20198;-93
2021/07/13 15:09:15;;;;;;;2.03;1.38;;;15.60;98.60;;;;;;6158523;23;20290;-93
2021/07/13 15:11:44;;;;;;;1.50;1.40;;;15.60;98.80;;;;;;6154679;23;20270;-92
2021/07/13 15:14:11;;;;;;;1.50;1.40;;;15.60;98.40;;;;;;6152183;23;20254;-92
2021/07/13 15:16:40;;;;;;;3.75;1.65;;;15.60;98.20;;;;;;6152215;23;20171;-92
2021/07/13 15:19:07;;;;;;;1.88;1.35;;;15.60;98.30;;;;;;6154826;23;20245;-92
2021/07/13 15:21:37;;;;;;;2.00;1.40;;;15.50;98.50;;;;;;6156090;23;20486;-93
2021/07/13 15:24:07;;;;;;;1.58;1.40;;;15.50;98.90;;;;;;6155140;23;20215;-91
2021/07/13 15:26:55;;;;;;;3.38;1.27;;;15.50;98.40;;;;;;6097338;23;20178;-93
2021/07/13 15:32:34;;;;;;;1.90;1.50;;;15.30;99.00;;;;;;6057125;23;20261;-93
2021/07/13 15:35:02;;;;;;;2.47;1.45;;;15.30;99.30;;;;;;6161876;23;20505;-93
2021/07/13 15:46:28;;;;;;;2.88;1.70;;;15.20;99.80;;;;;;6068586;23;20170;-93
2021/07/13 15:58:33;;;;;;;3.78;2.03;;;15.70;99.00;;;;;;6146175;23;20206;-95
2021/07/13 16:40:29;;;;;;;1.55;1.30;;;16.90;95.60;;;;;;6142238;23;20159;-90
2021/07/13 16:52:48;;;;;;;1.85;1.60;;;17.00;94.50;;;;;;6110227;23;20199;-93
2021/07/13 16:58:31;;;;;;;2.33;1.95;;;16.80;95.40;;;;;;6110949;23;20287;-93
2021/07/13 17:00:59;;;;;;;2.33;2.10;;;16.70;95.40;;;;;;6106624;23;20196;-92
2021/07/13 17:03:27;;;;;;;1.45;1.35;;;16.80;95.60;;;;;;6099522;23;20205;-92
2021/07/13 17:06:20;;;;;;;2.60;1.50;;;16.80;95.60;;;;;;6098595;23;20208;-88
2021/07/13 17:12:35;;;;;;;1.70;1.50;;;16.90;96.30;;;;;;6159045;23;20519;-91
2021/07/13 17:17:52;;;;;;;1.63;1.52;;;16.90;96.80;;;;;;6156900;23;20742;-92
2021/07/13 17:23:41;;;;;;;1.40;1.30;;;16.70;96.70;;;;;;6160810;23;20285;-93
2021/07/13 17:26:21;;;;;;;1.60;1.48;;;16.70;97.30;;;;;;6162136;23;20194;-92
2021/07/13 17:28:49;;;;;;;6.15;4.28;;;16.80;97.00;;;;;;6166332;23;20175;-93
2021/07/13 17:31:16;;;;;;;2.13;1.63;;;16.80;97.20;;;;;;6165517;23;20206;-93
2021/07/13 17:33:43;;;;;;;1.50;1.40;;;16.80;96.70;;;;;;6157660;23;20207;-92
2021/07/13 17:36:11;;;;;;;1.55;1.45;;;16.80;96.80;;;;;;6156235;23;20624;-91
2021/07/13 17:38:38;;;;;;;2.60;2.40;;;16.80;96.80;;;;;;6155345;23;20268;-91
2021/07/13 17:41:05;;;;;;;2.08;1.52;;;16.70;96.90;;;;;;6155853;23;20187;-89
2021/07/13 17:43:33;;;;;;;2.42;2.20;;;16.80;96.80;;;;;;6154520;23;20282;-92
2021/07/13 17:46:01;;;;;;;1.50;1.40;;;16.80;96.50;;;;;;6153782;23;20195;-92
2021/07/13 17:48:30;;;;;;;1.95;1.33;;;16.90;96.80;;;;;;6157124;23;20663;-92
2021/07/13 17:50:57;;;;;;;1.85;1.50;;;16.80;96.30;;;;;;6158758;23;20187;-92
2021/07/13 17:53:24;;;;;;;2.95;1.33;;;16.80;96.80;;;;;;6158434;23;20210;-92
2021/07/13 17:55:54;;;;;;;1.65;1.50;;;16.80;96.70;;;;;;6158742;23;20203;-90
2021/07/13 17:58:21;;;;;;;2.60;1.65;;;16.80;96.90;;;;;;6158913;23;20213;-90
2021/07/13 18:00:48;;;;;;;1.70;1.55;;;16.70;97.30;;;;;;6158064;23;20179;-90
2021/07/13 18:03:40;;;;;;;1.45;1.30;;;16.70;97.30;;;;;;6159284;23;20234;-91
2021/07/13 18:13:52;;;;;;;2.15;1.40;;;16.50;97.20;;;;;;6168447;23;20199;-90
2021/07/13 18:17:07;;;;;;;1.30;1.20;;;16.40;97.20;;;;;;6162286;23;20619;-91
2021/07/13 18:20:07;;;;;;;2.05;1.70;;;16.20;97.50;;;;;;6160371;23;20171;-94
2021/07/13 18:25:56;;;;;;;1.75;1.30;;;16.20;98.00;;;;;;6160541;23;20143;-91
2021/07/13 18:28:24;;;;;;;2.67;1.30;;;16.20;98.30;;;;;;6168353;23;20207;-91
2021/07/13 18:30:51;;;;;;;2.05;1.33;;;16.20;97.70;;;;;;6166067;23;20246;-91
2021/07/13 18:33:28;;;;;;;1.50;1.30;;;16.20;97.90;;;;;;6158244;23;20207;-91
2021/07/13 18:36:00;;;;;;;1.95;1.30;;;16.10;98.00;;;;;;6155902;23;20242;-90
2021/07/13 18:38:59;;;;;;;1.52;1.30;;;16.10;98.10;;;;;;6154447;23;20277;-90
2021/07/13 18:41:26;;;;;;;2.95;1.52;;;16.10;97.70;;;;;;6155304;23;20615;-91
2021/07/13 18:43:54;;;;;;;2.35;1.40;;;16.00;97.80;;;;;;6153523;23;20233;-90
2021/07/13 18:46:33;;;;;;;1.40;1.30;;;16.00;98.30;;;;;;6156403;23;20170;-90
2021/07/13 18:51:42;;;;;;;1.90;1.35;;;15.80;98.50;;;;;;6155677;23;20639;-90
2021/07/13 18:54:09;;;;;;;48.13;43.28;;;15.70;99.00;;;;;;6156496;23;20222;-91
2021/07/13 18:57:07;;;;;;;4.43;3.88;;;16.00;99.90;;;;;;6159571;23;20246;-91
2021/07/13 18:59:59;;;;;;;7.88;7.10;;;16.10;99.30;;;;;;6157411;23;20259;-90
2021/07/13 19:02:26;;;;;;;2.17;1.67;;;16.20;98.20;;;;;;6156574;23;20267;-90
2021/07/13 19:04:53;;;;;;;1.70;1.60;;;16.00;98.20;;;;;;6157927;23;20167;-89
2021/07/13 19:21:07;;;;;;;2.08;1.65;;;15.80;99.20;;;;;;6158236;23;20627;-88
2021/07/13 19:23:34;;;;;;;3.15;1.80;;;15.80;98.80;;;;;;6157076;23;20238;-89
2021/07/13 19:26:01;;;;;;;3.17;2.30;;;15.60;98.90;;;;;;6157959;23;20254;-88
2021/07/13 19:28:33;;;;;;;2.25;1.80;;;15.60;99.50;;;;;;6158392;23;20270;-88
2021/07/13 19:31:00;;;;;;;2.03;1.35;;;15.60;99.50;;;;;;6159001;23;20246;-87
2021/07/13 19:33:30;;;;;;;1.77;1.65;;;15.60;99.40;;;;;;6159314;23;20266;-88
2021/07/13 19:39:02;;;;;;;1.73;1.50;;;15.50;99.60;;;;;;6157795;23;20221;-88
2021/07/13 19:41:56;;;;;;;1.83;1.70;;;15.40;99.90;;;;;;6159558;23;20175;-87
2021/07/13 19:44:23;;;;;;;2.28;1.52;;;15.60;99.90;;;;;;6157543;23;20238;-88
2021/07/13 19:46:50;;;;;;;2.15;1.50;;;15.70;99.70;;;;;;6158493;23;20246;-88
2021/07/13 20:23:04;;;;;;;3.15;1.52;;;15.30;99.90;;;;;;6165940;23;20202;-87
2021/07/13 20:25:34;;;;;;;2.13;1.70;;;15.20;99.90;;;;;;6158510;23;20187;-90
2021/07/13 20:31:32;;;;;;;1.60;1.50;;;15.10;99.90;;;;;;6159282;23;20155;-89
2021/07/13 20:34:00;;;;;;;3.35;1.80;;;15.10;99.90;;;;;;6162756;23;20294;-89
2021/07/13 20:36:27;;;;;;;2.10;1.80;;;15.10;99.90;;;;;;6158612;23;20191;-90
